M I D A S
Marine Information and Data Acquisition System
Tripno 1904 of the Zeeleeuw from 2010-06-22 06:24:34 to 2010-06-22 16:58:46
Back to CruiseResearch ActivitiesStationsMapUnderway DataData graphs

EquipmentUnitsComment
TimeDGPSUTC
LatitudeDGPSDM.mWGS84
LongitudeDGPSDM.mWGS84
HeadingGyrodeg 
SOGDGPSknotsSpeed over ground
COGDGPSdegCourse over ground
DepthEcho soundermeters200 kHz
Missing or incorrect values are displayed as -999
Navigation data collected by the RV Zeeleeuw from 2010-06-22 06:13:07 to 2010-06-22 17:06:19
                                                                                    Next 1000 lines
Time Latitude Longitude Heading SOG COG Depth
2010-06-22 06:13:17 51°13.661 2°55.959 110.3 0.6 292 6.9
2010-06-22 06:13:22 51°13.662 2°55.957 109.8 0.9 295 6.9
2010-06-22 06:13:27 51°13.662 2°55.955 109.5 1.2 290 6.9
2010-06-22 06:13:32 51°13.663 2°55.952 109.3 1.5 292 7
2010-06-22 06:13:37 51°13.664 2°55.948 109.1 1.8 292 7.1
2010-06-22 06:13:42 51°13.665 2°55.944 109.1 2.1 292 7.6
2010-06-22 06:13:48 51°13.666 2°55.938 109.2 2.3 292 -999
2010-06-22 06:13:53 51°13.668 2°55.933 109.2 2.5 292 -999
2010-06-22 06:13:59 51°13.669 2°55.926 109 2.7 291 -999
2010-06-22 06:14:05 51°13.671 2°55.919 108.3 2.9 290 -999
2010-06-22 06:14:10 51°13.672 2°55.913 107.5 3.1 288 -999
2010-06-22 06:14:15 51°13.673 2°55.906 106.3 3.2 286 -999
2010-06-22 06:14:20 51°13.674 2°55.898 105.3 3.3 285 -999
2010-06-22 06:14:25 51°13.675 2°55.891 104.1 3.4 284 -999
2010-06-22 06:14:30 51°13.677 2°55.884 103.3 3.4 283 -999
2010-06-22 06:14:36 51°13.678 2°55.875 102.6 3.4 283 -999
2010-06-22 06:14:40 51°13.679 2°55.869 102.2 3.4 282 -999
2010-06-22 06:14:45 51°13.68 2°55.861 101.9 3.5 282 -999
2010-06-22 06:14:50 51°13.68 2°55.854 101.7 3.4 283 -999
2010-06-22 06:14:56 51°13.682 2°55.845 101.4 3.5 281 -999
2010-06-22 06:15:00 51°13.682 2°55.838 101.3 3.7 283 -999
2010-06-22 06:15:05 51°13.683 2°55.83 101.3 3.6 282 -999
2010-06-22 06:15:10 51°13.684 2°55.823 101 3.5 282 -999
2010-06-22 06:15:15 51°13.685 2°55.815 100.3 3.5 281 -999
2010-06-22 06:15:20 51°13.686 2°55.807 99.2 3.5 281 -999
2010-06-22 06:15:25 51°13.687 2°55.8 98.1 3.5 278 -999
2010-06-22 06:15:30 51°13.687 2°55.792 97.3 3.5 278 -999
2010-06-22 06:15:35 51°13.688 2°55.785 96.1 3.4 277 -999
2010-06-22 06:15:41 51°13.689 2°55.776 94.4 3.4 274 -999
2010-06-22 06:15:45 51°13.689 2°55.77 92.1 3.3 273 -999
2010-06-22 06:15:50 51°13.689 2°55.763 90 3.2 268 -999
2010-06-22 06:15:55 51°13.689 2°55.756 86.9 3 267 -999
2010-06-22 06:16:00 51°13.688 2°55.75 82.9 2.9 261 -999
2010-06-22 06:16:05 51°13.687 2°55.744 79.9 2.4 257 -999
2010-06-22 06:16:10 51°13.686 2°55.74 77.4 1.7 251 13
2010-06-22 06:16:15 51°13.686 2°55.738 74.8 1 250 13.1
2010-06-22 06:16:20 51°13.686 2°55.738 71.8 0.2 204 13.1
2010-06-22 06:16:25 51°13.686 2°55.739 68.2 0.6 63 13.2
2010-06-22 06:16:29 51°13.687 2°55.741 62.2 1.1 60 13.2
2010-06-22 06:16:34 51°13.688 2°55.744 55.9 1.6 54 13.1
2010-06-22 06:16:39 51°13.69 2°55.747 49 2.1 46 13.2
2010-06-22 06:16:43 51°13.692 2°55.75 42 2.5 40 13.4
2010-06-22 06:16:49 51°13.696 2°55.754 35.3 2.8 31 14
2010-06-22 06:16:53 51°13.699 2°55.756 28.4 2.9 27 14.4
2010-06-22 06:16:58 51°13.703 2°55.758 21.3 3 19 14.6
2010-06-22 06:17:02 51°13.706 2°55.758 14.1 3 9 14.5
2010-06-22 06:17:07 51°13.71 2°55.759 7.6 3.1 2 13.8
2010-06-22 06:17:12 51°13.715 2°55.758 0.8 3.2 351 13.7
2010-06-22 06:17:17 51°13.719 2°55.756 353.7 3.2 344 13.5
2010-06-22 06:17:22 51°13.723 2°55.753 346.7 3.4 336 13.6
2010-06-22 06:17:27 51°13.728 2°55.749 339 3.6 326 13.5
2010-06-22 06:17:32 51°13.732 2°55.744 331.9 3.7 322 13.2
2010-06-22 06:17:37 51°13.736 2°55.739 327.4 3.8 321 12.3
2010-06-22 06:17:42 51°13.74 2°55.733 324.6 3.9 317 12.8
2010-06-22 06:17:47 51°13.744 2°55.727 323.1 4.3 318 12
2010-06-22 06:17:52 51°13.749 2°55.719 322 4.7 316 11.7
2010-06-22 06:17:57 51°13.754 2°55.712 321.7 4.9 318 12
2010-06-22 06:18:02 51°13.759 2°55.704 321.7 5.2 317 11.7
2010-06-22 06:18:07 51°13.765 2°55.697 322.3 5.4 320 12.1
2010-06-22 06:18:12 51°13.771 2°55.689 323.5 5.6 321 12.3
2010-06-22 06:18:17 51°13.777 2°55.681 325.2 5.8 324 12.5
2010-06-22 06:18:21 51°13.783 2°55.676 327.4 5.9 326 12.6
2010-06-22 06:18:27 51°13.791 2°55.667 329.5 6 329 12.5
2010-06-22 06:18:32 51°13.799 2°55.661 330.9 6.2 330 12.5
2010-06-22 06:18:37 51°13.806 2°55.654 332 6.3 332 12.6
2010-06-22 06:18:41 51°13.813 2°55.649 333.3 6.4 332 12.7
2010-06-22 06:18:47 51°13.823 2°55.641 334.8 6.5 334 12.7
2010-06-22 06:18:52 51°13.831 2°55.635 336 6.4 334 12.6
2010-06-22 06:18:57 51°13.839 2°55.629 336.1 6.3 334 12.9
2010-06-22 06:19:01 51°13.845 2°55.624 336.1 6.2 334 12.7
2010-06-22 06:19:07 51°13.854 2°55.617 336.4 6 335 13
2010-06-22 06:19:12 51°13.861 2°55.611 337 5.9 334 12.4
2010-06-22 06:19:17 51°13.868 2°55.606 337.3 5.8 335 12.2
2010-06-22 06:19:22 51°13.875 2°55.601 337.2 5.7 334 12
2010-06-22 06:19:27 51°13.883 2°55.596 337.2 5.6 337 11.9
2010-06-22 06:19:32 51°13.89 2°55.591 337.4 5.6 336 11.8
2010-06-22 06:19:37 51°13.897 2°55.586 337.7 5.7 337 12.1
2010-06-22 06:19:41 51°13.903 2°55.582 337.8 5.7 337 12.3
2010-06-22 06:19:47 51°13.912 2°55.576 337.4 5.8 336 12.3
2010-06-22 06:19:52 51°13.919 2°55.571 336.7 5.8 335 12.3
2010-06-22 06:19:57 51°13.926 2°55.565 336 5.7 334 12.3
2010-06-22 06:20:02 51°13.933 2°55.56 335.3 5.7 334 12.1
2010-06-22 06:20:07 51°13.94 2°55.554 334.8 5.6 333 12.2
2010-06-22 06:20:12 51°13.947 2°55.548 334.7 5.5 333 12.1
2010-06-22 06:20:17 51°13.953 2°55.543 335.2 5.4 333 12.1
2010-06-22 06:20:22 51°13.96 2°55.538 335.4 5.3 334 12.1
2010-06-22 06:20:27 51°13.967 2°55.533 335.7 5.3 334 12
2010-06-22 06:20:32 51°13.973 2°55.528 336.1 5.2 336 12
2010-06-22 06:20:37 51°13.98 2°55.523 336.4 5.2 336 12.1
2010-06-22 06:20:41 51°13.985 2°55.52 336.5 5.2 337 11.9
2010-06-22 06:20:47 51°13.993 2°55.514 336.5 5.2 337 11.9
2010-06-22 06:20:52 51°14 2°55.509 336.5 5.2 336 11.9
2010-06-22 06:20:57 51°14.007 2°55.505 336.4 5.1 336 11.7
2010-06-22 06:21:01 51°14.012 2°55.501 336.3 5.1 335 11.7
2010-06-22 06:21:07 51°14.019 2°55.495 336.1 5.1 335 11.7
2010-06-22 06:21:12 51°14.026 2°55.491 336.1 5.1 334 11.7
2010-06-22 06:21:17 51°14.032 2°55.486 336.1 5 334 11.7
2010-06-22 06:21:22 51°14.038 2°55.481 336.1 5 334 11.7
2010-06-22 06:21:27 51°14.044 2°55.476 336.5 5 335 11.7
2010-06-22 06:21:32 51°14.051 2°55.472 336.8 5 335 11.7
2010-06-22 06:21:37 51°14.057 2°55.467 337 5 335 11.8
2010-06-22 06:21:41 51°14.062 2°55.464 337.1 4.9 335 12.1
2010-06-22 06:21:47 51°14.07 2°55.458 337.1 4.9 335 11.7
2010-06-22 06:21:52 51°14.076 2°55.454 336.9 4.9 336 11.8
2010-06-22 06:21:57 51°14.083 2°55.449 336.7 5 336 11.7
2010-06-22 06:22:02 51°14.089 2°55.445 336.6 5 337 11.9
2010-06-22 06:22:07 51°14.095 2°55.44 336.7 5 336 12.2
2010-06-22 06:22:12 51°14.102 2°55.436 336.8 5 337 12.2
2010-06-22 06:22:17 51°14.108 2°55.432 336.6 5 336 12.2
2010-06-22 06:22:22 51°14.114 2°55.427 335.8 5 335 -999
2010-06-22 06:22:28 51°14.122 2°55.422 335.4 4.9 335 -999
2010-06-22 06:22:33 51°14.128 2°55.417 335.3 4.9 335 -999
2010-06-22 06:22:39 51°14.135 2°55.411 335.2 5.1 334 -999
2010-06-22 06:22:45 51°14.144 2°55.405 335.2 5.4 334 -999
2010-06-22 06:22:49 51°14.149 2°55.401 335 5.6 333 12.1
2010-06-22 06:22:55 51°14.158 2°55.394 334.7 6 332 11.8
2010-06-22 06:23:00 51°14.166 2°55.387 334.2 6.3 332 11.8
2010-06-22 06:23:04 51°14.172 2°55.381 333.3 6.6 331 11.9
2010-06-22 06:23:09 51°14.18 2°55.374 332.8 6.9 331 11.9
2010-06-22 06:23:14 51°14.189 2°55.367 332.6 7.1 331 12.3
2010-06-22 06:23:19 51°14.198 2°55.359 332.5 7.3 331 12.2
2010-06-22 06:23:23 51°14.205 2°55.352 332.1 7.5 330 11.9
2010-06-22 06:23:29 51°14.216 2°55.342 331.7 7.6 330 11.9
2010-06-22 06:23:33 51°14.224 2°55.335 331.3 7.7 330 11.9
2010-06-22 06:23:37 51°14.231 2°55.328 330.7 7.9 329 11.9
2010-06-22 06:23:42 51°14.241 2°55.319 330.1 8.3 327 11.9
2010-06-22 06:23:47 51°14.25 2°55.308 328.1 8.6 324 11.8
2010-06-22 06:23:52 51°14.26 2°55.296 325.8 8.9 323 12.1
2010-06-22 06:23:57 51°14.27 2°55.284 324.4 9.1 323 -999
2010-06-22 06:24:02 51°14.281 2°55.271 324.1 9.4 322 -999
2010-06-22 06:24:07 51°14.291 2°55.258 324.2 9.6 323 11.6
2010-06-22 06:24:12 51°14.302 2°55.245 324.4 9.8 323 11.5
2010-06-22 06:24:17 51°14.313 2°55.232 324.7 10 323 11.6
2010-06-22 06:24:21 51°14.322 2°55.221 324.9 10.1 323 11.2
2010-06-22 06:24:27 51°14.336 2°55.205 324.9 10.2 323 11.1
2010-06-22 06:24:32 51°14.347 2°55.191 325.3 10.3 324 11.9
2010-06-22 06:24:37 51°14.359 2°55.178 326.3 10.4 325 11.5
2010-06-22 06:24:42 51°14.371 2°55.165 327.4 10.5 325 11.5
2010-06-22 06:24:47 51°14.383 2°55.152 328.2 10.6 327 11.5
2010-06-22 06:24:52 51°14.396 2°55.139 328.5 10.8 327 11.5
2010-06-22 06:24:57 51°14.409 2°55.126 328.5 10.9 327 11.6
2010-06-22 06:25:02 51°14.422 2°55.114 329.7 11.1 329 11.5
2010-06-22 06:25:07 51°14.435 2°55.101 330.7 11.2 330 11.4
2010-06-22 06:25:12 51°14.449 2°55.089 330.7 11.3 331 11.6
2010-06-22 06:25:17 51°14.463 2°55.077 330.8 11.4 331 12.1
2010-06-22 06:25:21 51°14.474 2°55.067 330.5 11.5 331 12.1
2010-06-22 06:25:27 51°14.491 2°55.052 330.3 11.6 331 11.9
2010-06-22 06:25:32 51°14.505 2°55.039 330.2 11.5 330 12.1
2010-06-22 06:25:37 51°14.519 2°55.026 329.6 11.5 329 12.2
2010-06-22 06:25:41 51°14.529 2°55.014 326.7 11.5 324 12.5
2010-06-22 06:25:47 51°14.544 2°54.995 322.3 11.5 321 12.9
2010-06-22 06:25:52 51°14.556 2°54.978 319.5 11.5 316 12.7
2010-06-22 06:25:57 51°14.567 2°54.959 316 11.5 313 12.8
2010-06-22 06:26:02 51°14.576 2°54.939 311.7 11.4 308 12.5
2010-06-22 06:26:07 51°14.585 2°54.918 306.6 11.5 304 12.7
2010-06-22 06:26:12 51°14.593 2°54.897 302.4 11.4 300 12.5
2010-06-22 06:26:17 51°14.601 2°54.874 298.6 11.5 298 12.6
2010-06-22 06:26:21 51°14.606 2°54.856 295.9 11.5 295 12.3
2010-06-22 06:26:27 51°14.613 2°54.828 293.2 11.4 291 12.5
2010-06-22 06:26:32 51°14.618 2°54.804 289.6 11.5 288 12.6
2010-06-22 06:26:37 51°14.622 2°54.779 286.7 11.5 285 12.6
2010-06-22 06:26:42 51°14.625 2°54.754 283.9 11.5 282 12.6
2010-06-22 06:26:47 51°14.628 2°54.729 280.1 11.6 277 12.7
2010-06-22 06:26:52 51°14.628 2°54.703 276.8 11.6 273 12.7
2010-06-22 06:26:57 51°14.628 2°54.677 272.2 11.7 269 12.6
2010-06-22 06:27:02 51°14.626 2°54.651 267.2 11.8 264 11.4
2010-06-22 06:27:07 51°14.625 2°54.625 264.5 11.9 266 11.2
2010-06-22 06:27:12 51°14.625 2°54.599 266.5 11.9 268 11.2
2010-06-22 06:27:17 51°14.622 2°54.573 265.5 12 261 11.2
2010-06-22 06:27:22 51°14.621 2°54.546 263.8 12.1 266 11
2010-06-22 06:27:27 51°14.617 2°54.52 262.9 12.3 259 11.1
2010-06-22 06:27:32 51°14.615 2°54.493 261.9 12.3 262 11.1
2010-06-22 06:27:37 51°14.61 2°54.467 259.2 12.3 254 11.2
2010-06-22 06:27:41 51°14.607 2°54.445 257.1 12.4 258 11.1
2010-06-22 06:27:47 51°14.601 2°54.414 255 12.4 251 11
2010-06-22 06:27:52 51°14.596 2°54.387 253.4 12.4 251 10.8
2010-06-22 06:27:57 51°14.589 2°54.362 250.7 12.5 249 10.9
2010-06-22 06:28:02 51°14.583 2°54.336 249.4 12.5 248 10.9
2010-06-22 06:28:07 51°14.575 2°54.311 247.8 12.5 246 11.1
2010-06-22 06:28:12 51°14.568 2°54.286 246.4 12.5 243 11
2010-06-22 06:28:17 51°14.56 2°54.261 244.3 12.5 244 10.8
2010-06-22 06:28:21 51°14.553 2°54.242 242.5 12.5 240 10.8
2010-06-22 06:28:27 51°14.543 2°54.213 241 12.6 240 11.1
2010-06-22 06:28:32 51°14.534 2°54.189 240.6 12.5 240 10.8
2010-06-22 06:28:37 51°14.524 2°54.167 239 12.6 236 11.2
2010-06-22 06:28:42 51°14.516 2°54.142 238.9 12.5 240 10.8
2010-06-22 06:28:47 51°14.505 2°54.12 238 12.6 235 10.9
2010-06-22 06:28:52 51°14.496 2°54.097 237.1 12.4 234 10.6
2010-06-22 06:28:57 51°14.485 2°54.075 235.3 12.5 233 10.6
2010-06-22 06:29:02 51°14.476 2°54.052 234.6 12.5 235 10.4
2010-06-22 06:29:07 51°14.464 2°54.031 233.8 12.6 231 10.6
2010-06-22 06:29:12 51°14.454 2°54.008 233.3 12.5 234 10.6
2010-06-22 06:29:17 51°14.443 2°53.987 233.2 12.6 231 10.7
2010-06-22 06:29:22 51°14.433 2°53.965 232.5 12.6 232 10.6
2010-06-22 06:29:27 51°14.421 2°53.943 232.1 12.7 232 10.7
2010-06-22 06:29:32 51°14.411 2°53.921 232.3 12.6 233 10.6
2010-06-22 06:29:37 51°14.4 2°53.9 232.7 12.6 231 10.5
2010-06-22 06:29:41 51°14.391 2°53.882 232 12.7 232 10.6
2010-06-22 06:29:47 51°14.379 2°53.855 232.7 12.7 233 10.4
2010-06-22 06:29:52 51°14.367 2°53.833 232.6 12.7 232 10.6
2010-06-22 06:29:57 51°14.357 2°53.811 232.5 12.7 233 10.6
2010-06-22 06:30:01 51°14.348 2°53.793 232.7 12.7 232 10.6
2010-06-22 06:30:07 51°14.336 2°53.766 233.1 12.6 233 10.6
2010-06-22 06:30:12 51°14.325 2°53.744 233.2 12.7 233 10.7
2010-06-22 06:30:17 51°14.314 2°53.722 233.2 12.7 232 10.8
2010-06-22 06:30:21 51°14.306 2°53.704 233.3 12.6 234 10.6
2010-06-22 06:30:27 51°14.293 2°53.677 233.8 12.7 232 10.6
2010-06-22 06:30:32 51°14.283 2°53.655 233.6 12.7 234 10.8
2010-06-22 06:30:37 51°14.272 2°53.632 233.8 12.7 233 10.7
2010-06-22 06:30:42 51°14.262 2°53.61 233.8 12.7 234 10.8
2010-06-22 06:30:47 51°14.251 2°53.587 234.1 12.7 233 10.8
2010-06-22 06:30:52 51°14.241 2°53.564 234.2 12.7 236 10.8
2010-06-22 06:30:57 51°14.231 2°53.542 234.7 12.7 231 10.8
2010-06-22 06:31:01 51°14.223 2°53.523 234.3 12.7 237 10.7
2010-06-22 06:31:07 51°14.209 2°53.497 234.2 12.8 230 10.9
2010-06-22 06:31:12 51°14.2 2°53.473 234.1 12.8 237 10.9
2010-06-22 06:31:17 51°14.189 2°53.452 234.5 12.7 231 11
2010-06-22 06:31:22 51°14.179 2°53.429 233.8 12.7 235 11
2010-06-22 06:31:27 51°14.168 2°53.406 234.2 12.7 232 11.1
2010-06-22 06:31:32 51°14.158 2°53.383 234.2 12.7 234 10.9
2010-06-22 06:31:37 51°14.147 2°53.361 234.2 12.9 233 11.2
2010-06-22 06:31:41 51°14.139 2°53.342 234.5 12.7 236 11
2010-06-22 06:31:47 51°14.126 2°53.316 234.7 12.6 231 11.1
2010-06-22 06:31:52 51°14.116 2°53.292 233.7 12.8 236 11.1
2010-06-22 06:31:57 51°14.106 2°53.27 234.8 12.7 233 11.3
2010-06-22 06:32:01 51°14.098 2°53.252 234.9 12.6 235 11
2010-06-22 06:32:07 51°14.085 2°53.225 234.1 12.7 233 11.2
2010-06-22 06:32:12 51°14.075 2°53.202 234.5 12.6 237 11.1
2010-06-22 06:32:17 51°14.064 2°53.18 234.4 12.6 231 11.2
2010-06-22 06:32:21 51°14.056 2°53.162 233.8 12.6 237 11.1
2010-06-22 06:32:27 51°14.043 2°53.135 234.5 12.6 231 11.4
2010-06-22 06:32:32 51°14.034 2°53.112 234.5 12.6 235 11.1
2010-06-22 06:32:37 51°14.023 2°53.09 234.4 12.8 232 11.4
2010-06-22 06:32:42 51°14.014 2°53.066 234.9 12.6 237 11.2
2010-06-22 06:32:47 51°14.003 2°53.045 235 12.6 231 11.4
2010-06-22 06:32:52 51°13.993 2°53.021 234.7 12.6 237 11.3
2010-06-22 06:32:57 51°13.982 2°52.999 235.2 12.6 232 11.2
2010-06-22 06:33:01 51°13.975 2°52.981 234.8 12.6 238 11.3
2010-06-22 06:33:07 51°13.962 2°52.955 235.6 12.4 231 11.3
2010-06-22 06:33:12 51°13.953 2°52.931 233.8 12.6 237 11.4
2010-06-22 06:33:17 51°13.942 2°52.909 235.8 12.4 233 11.4
2010-06-22 06:33:22 51°13.932 2°52.887 234.7 12.5 235 11.4
2010-06-22 06:33:27 51°13.922 2°52.863 234.8 12.7 235 11.4
2010-06-22 06:33:32 51°13.912 2°52.841 235.9 12.5 235 11.3
2010-06-22 06:33:37 51°13.902 2°52.819 234.8 12.6 233 11.5
2010-06-22 06:33:42 51°13.892 2°52.795 234.9 12.6 237 11.4
2010-06-22 06:33:47 51°13.882 2°52.773 235.2 12.4 232 11.4
2010-06-22 06:33:52 51°13.872 2°52.751 234.3 12.5 235 11.5
2010-06-22 06:33:57 51°13.862 2°52.728 235 12.5 234 11.5
2010-06-22 06:34:02 51°13.851 2°52.706 234.8 12.6 233 11.5
2010-06-22 06:34:07 51°13.841 2°52.683 234.4 12.6 233 11.4
2010-06-22 06:34:12 51°13.831 2°52.661 234.5 12.6 236 11.4
2010-06-22 06:34:17 51°13.821 2°52.638 235.4 12.6 234 11.4
2010-06-22 06:34:21 51°13.812 2°52.62 234.5 12.7 234 11.4
2010-06-22 06:34:27 51°13.8 2°52.593 235.1 12.6 235 11.4
2010-06-22 06:34:32 51°13.79 2°52.57 235 12.7 235 11.4
2010-06-22 06:34:37 51°13.78 2°52.547 235.2 12.6 236 11.4
2010-06-22 06:34:42 51°13.77 2°52.525 235.3 12.7 233 11.6
2010-06-22 06:34:47 51°13.76 2°52.502 235.2 12.7 238 11.7
2010-06-22 06:34:52 51°13.749 2°52.481 235.2 12.6 231 11.5
2010-06-22 06:34:57 51°13.74 2°52.457 234.6 12.6 239 11.5
2010-06-22 06:35:01 51°13.731 2°52.439 235.9 12.5 231 11.5
2010-06-22 06:35:07 51°13.719 2°52.412 234.2 12.6 238 11.6
2010-06-22 06:35:12 51°13.709 2°52.39 235.6 12.5 232 11.5
2010-06-22 06:35:17 51°13.699 2°52.367 234.5 12.7 235 11.5
2010-06-22 06:35:22 51°13.689 2°52.344 235.1 12.6 234 11.5
2010-06-22 06:35:27 51°13.679 2°52.322 235.6 12.6 234 11.5
2010-06-22 06:35:32 51°13.669 2°52.299 235.1 12.6 236 11.5
2010-06-22 06:35:37 51°13.659 2°52.277 235.9 12.5 234 11.5
2010-06-22 06:35:42 51°13.649 2°52.254 234.8 12.6 236 11.5
2010-06-22 06:35:47 51°13.639 2°52.231 235.6 12.5 234 11.7
2010-06-22 06:35:52 51°13.629 2°52.209 235.9 12.5 235 11.5
2010-06-22 06:35:57 51°13.619 2°52.186 235 12.6 235 11.5
2010-06-22 06:36:02 51°13.609 2°52.163 235.9 12.5 235 11.5
2010-06-22 06:36:07 51°13.599 2°52.141 235.1 12.5 236 11.5
2010-06-22 06:36:12 51°13.589 2°52.119 235.2 12.5 233 11.5
2010-06-22 06:36:17 51°13.579 2°52.096 234.6 12.6 235 11.5
2010-06-22 06:36:21 51°13.571 2°52.078 235.2 12.5 233 11.7
2010-06-22 06:36:27 51°13.559 2°52.051 235 12.5 235 11.4
2010-06-22 06:36:32 51°13.548 2°52.029 234.7 12.6 234 11.7
2010-06-22 06:36:37 51°13.539 2°52.006 235.5 12.4 236 11.5
2010-06-22 06:36:41 51°13.53 2°51.989 234.9 12.5 232 11.5
2010-06-22 06:36:47 51°13.519 2°51.962 234.5 11.8 236 11.7
2010-06-22 06:36:52 51°13.509 2°51.942 235.4 11.5 232 11.7
2010-06-22 06:36:57 51°13.501 2°51.922 234.6 11.2 236 11.7
2010-06-22 06:37:01 51°13.494 2°51.906 235.4 10.7 234 11.9
2010-06-22 06:37:07 51°13.484 2°51.884 235 10.5 236 11.7
2010-06-22 06:37:12 51°13.475 2°51.865 236 10.2 232 11.7
2010-06-22 06:37:17 51°13.467 2°51.847 234.7 10.1 235 11.7
2010-06-22 06:37:22 51°13.459 2°51.83 235.2 9.9 235 11.7
2010-06-22 06:37:27 51°13.451 2°51.812 235.5 9.7 235 11.7
2010-06-22 06:37:32 51°13.444 2°51.794 235.3 9.7 235 12
2010-06-22 06:37:37 51°13.436 2°51.777 235.6 9.6 235 11.7
2010-06-22 06:37:41 51°13.43 2°51.764 235.8 9.4 236 11.8
2010-06-22 06:37:47 51°13.421 2°51.744 235.8 9.4 233 12
2010-06-22 06:37:52 51°13.414 2°51.726 235.9 9.3 237 11.6
2010-06-22 06:37:57 51°13.406 2°51.71 235.4 9.4 233 11.9
2010-06-22 06:38:02 51°13.399 2°51.693 236 9.3 237 11.7
2010-06-22 06:38:07 51°13.391 2°51.676 235.7 9.4 233 11.9
2010-06-22 06:38:12 51°13.384 2°51.659 235.7 9.2 237 11.7
2010-06-22 06:38:17 51°13.376 2°51.643 235.8 9.2 233 11.9
2010-06-22 06:38:22 51°13.37 2°51.626 235.8 9.2 238 11.7
2010-06-22 06:38:27 51°13.362 2°51.61 236 9.2 235 11.9
2010-06-22 06:38:32 51°13.357 2°51.591 237.5 9.1 243 11.8
2010-06-22 06:38:37 51°13.351 2°51.574 242.5 8.9 246 11.9
2010-06-22 06:38:41 51°13.35 2°51.559 249.4 8.2 258 11.8
2010-06-22 06:38:47 51°13.348 2°51.539 257.4 7.5 265 12.1
2010-06-22 06:38:52 51°13.349 2°51.524 265.4 7 274 12
2010-06-22 06:38:57 51°13.351 2°51.51 273 6.5 280 11.9
2010-06-22 06:39:01 51°13.353 2°51.5 280.2 6.1 288 12
2010-06-22 06:39:07 51°13.357 2°51.486 287.1 5.7 297 11.9
2010-06-22 06:39:12 51°13.361 2°51.476 294 5.4 305 11.8
2010-06-22 06:39:17 51°13.366 2°51.467 300.6 5.3 311 11.9
2010-06-22 06:39:22 51°13.371 2°51.459 307.2 5.1 316 12.1
2010-06-22 06:39:27 51°13.377 2°51.452 313.6 5 322 12
2010-06-22 06:39:32 51°13.383 2°51.446 319.7 5 329 12.3
2010-06-22 06:39:37 51°13.389 2°51.441 324.5 5 331 12.5
2010-06-22 06:39:41 51°13.394 2°51.437 326.6 5.1 331 12.2
2010-06-22 06:39:47 51°13.402 2°51.43 328.1 5.2 333 12.1
2010-06-22 06:39:52 51°13.408 2°51.425 328.9 5.2 334 12.3
2010-06-22 06:39:57 51°13.415 2°51.42 328.9 5.3 333 12.3
2010-06-22 06:40:02 51°13.422 2°51.414 328.4 5.4 334 12.1
2010-06-22 06:40:07 51°13.428 2°51.409 328.2 5.5 334 12.1
2010-06-22 06:40:12 51°13.435 2°51.404 328.2 5.6 335 12.3
2010-06-22 06:40:17 51°13.443 2°51.399 329.5 5.7 337 12.2
2010-06-22 06:40:22 51°13.45 2°51.395 331.4 5.7 341 12.2
2010-06-22 06:40:27 51°13.458 2°51.392 334.5 5.6 344 12.3
2010-06-22 06:40:32 51°13.465 2°51.39 338.7 5.3 352 12.6
2010-06-22 06:40:37 51°13.472 2°51.389 345.2 5 354 12.3
2010-06-22 06:40:41 51°13.477 2°51.389 348.5 4.8 359 12.3
2010-06-22 06:40:47 51°13.485 2°51.389 351.1 4.5 -999 12.3
2010-06-22 06:40:52 51°13.491 2°51.39 353 4.4 4 12.5
2010-06-22 06:40:57 51°13.496 2°51.391 355 4.1 6 12.3
2010-06-22 06:41:01 51°13.5 2°51.392 356.4 3.8 9 12.3
2010-06-22 06:41:07 51°13.506 2°51.393 358.1 3.6 10 12.5
2010-06-22 06:41:12 51°13.511 2°51.395 359.4 3.3 14 12.5
2010-06-22 06:41:17 51°13.515 2°51.397 2.3 3.1 17 12.3
2010-06-22 06:41:22 51°13.519 2°51.399 4.4 2.8 20 12.4
2010-06-22 06:41:27 51°13.522 2°51.401 8.5 2.5 25 12.3
2010-06-22 06:41:32 51°13.525 2°51.404 12.6 2.2 29 12.4
2010-06-22 06:41:37 51°13.527 2°51.407 17.6 1.9 37 12.2
2010-06-22 06:41:41 51°13.528 2°51.408 21.5 1.7 41 12.7
2010-06-22 06:41:47 51°13.53 2°51.411 25.6 1.3 48 12.5
2010-06-22 06:41:52 51°13.531 2°51.412 29.4 1 46 12.3
2010-06-22 06:41:57 51°13.531 2°51.414 32.6 1.1 51 12.6
2010-06-22 06:42:02 51°13.532 2°51.416 35.1 1.1 53 12.6
2010-06-22 06:42:07 51°13.533 2°51.418 37.1 1.1 58 12.5
2010-06-22 06:42:12 51°13.534 2°51.42 38 0.9 51 12.3
2010-06-22 06:42:17 51°13.535 2°51.422 39.3 1 54 13
2010-06-22 06:42:22 51°13.536 2°51.424 40.4 1 55 12.3
2010-06-22 06:42:27 51°13.537 2°51.426 41.4 1.1 61 12.4
2010-06-22 06:42:32 51°13.537 2°51.427 42 1 54 12.7
2010-06-22 06:42:37 51°13.538 2°51.429 42.8 1 58 12.3
2010-06-22 06:42:42 51°13.539 2°51.431 43.5 1.1 62 12.9
2010-06-22 06:42:47 51°13.54 2°51.433 44.2 1 59 12.8
2010-06-22 06:42:52 51°13.54 2°51.435 44.7 1 58 12.3
2010-06-22 06:42:57 51°13.541 2°51.437 45.2 1.1 61 12.4
2010-06-22 06:43:01 51°13.542 2°51.438 45.5 1 53 12.3
2010-06-22 06:43:07 51°13.542 2°51.441 46 1 60 12.3
2010-06-22 06:43:12 51°13.543 2°51.442 46.5 1 62 12.9
2010-06-22 06:43:17 51°13.543 2°51.444 46.7 0.9 60 12.5
2010-06-22 06:43:21 51°13.544 2°51.446 47.3 1 58 12.3
2010-06-22 06:43:27 51°13.545 2°51.448 47.6 1.1 62 13
2010-06-22 06:43:32 51°13.546 2°51.45 47.9 1 60 12.5
2010-06-22 06:43:37 51°13.546 2°51.452 48.2 1 56 12.3
2010-06-22 06:43:41 51°13.547 2°51.453 48.6 1 57 12.3
2010-06-22 06:43:47 51°13.548 2°51.455 48.9 1 59 12.4
2010-06-22 06:43:52 51°13.549 2°51.457 49.1 1 56 12.3
2010-06-22 06:43:57 51°13.549 2°51.459 49.2 1 59 12.4
2010-06-22 06:44:02 51°13.55 2°51.461 49.4 1 59 12.4
2010-06-22 06:44:07 51°13.55 2°51.463 49.4 1 59 12.3
2010-06-22 06:44:12 51°13.551 2°51.465 49.4 0.9 62 12.3
2010-06-22 06:44:17 51°13.551 2°51.467 49.5 0.9 62 12.3
2010-06-22 06:44:21 51°13.552 2°51.468 49.5 1 62 12.4
2010-06-22 06:44:27 51°13.553 2°51.47 49.5 1.1 63 12.5
2010-06-22 06:44:32 51°13.553 2°51.472 49.5 1 69 12.5
2010-06-22 06:44:37 51°13.554 2°51.474 49.6 1 63 12.5
2010-06-22 06:44:42 51°13.555 2°51.476 50.1 0.9 65 12.5
2010-06-22 06:44:47 51°13.556 2°51.478 50.4 1 66 12.9
2010-06-22 06:44:52 51°13.557 2°51.48 50.8 1 59 12.6
2010-06-22 06:44:57 51°13.557 2°51.482 51.2 1.1 66 12.3
2010-06-22 06:45:02 51°13.557 2°51.484 51.3 1 67 12.9
2010-06-22 06:45:07 51°13.558 2°51.486 51.6 0.9 55 12.2
2010-06-22 06:45:12 51°13.558 2°51.488 52.2 1 61 12.7
2010-06-22 06:45:17 51°13.559 2°51.49 52.6 1 71 12.5
2010-06-22 06:45:22 51°13.559 2°51.492 52.8 1 64 12.6
2010-06-22 06:45:27 51°13.56 2°51.494 52.9 1 68 12.5
2010-06-22 06:45:32 51°13.561 2°51.496 53.1 1 59 12.7
2010-06-22 06:45:37 51°13.561 2°51.498 53.4 1 67 12.7
2010-06-22 06:45:41 51°13.562 2°51.499 53.8 1 67 12.8
2010-06-22 06:45:47 51°13.563 2°51.501 54.2 1 69 12.8
2010-06-22 06:45:52 51°13.563 2°51.504 54.5 0.9 63 12.8
2010-06-22 06:45:57 51°13.564 2°51.506 54.8 1 67 12.5
2010-06-22 06:46:01 51°13.564 2°51.507 55.2 1 65 12.7
2010-06-22 06:46:07 51°13.565 2°51.51 55.5 1 64 12.6
2010-06-22 06:46:12 51°13.566 2°51.512 55.9 1 64 12.5
2010-06-22 06:46:17 51°13.566 2°51.514 56.2 1 67 12.9
2010-06-22 06:46:21 51°13.566 2°51.515 56.7 1 66 12.5
2010-06-22 06:46:27 51°13.567 2°51.518 57.1 1 65 12.8
2010-06-22 06:46:32 51°13.568 2°51.52 57.4 1.1 71 12.5
2010-06-22 06:46:37 51°13.568 2°51.522 57.7 1.1 64 12.5
2010-06-22 06:46:42 51°13.569 2°51.524 58.2 1 64 12.8
2010-06-22 06:46:47 51°13.57 2°51.526 58.6 1.1 62 12.5
2010-06-22 06:46:52 51°13.57 2°51.528 59 1.1 68 12.5
2010-06-22 06:46:57 51°13.571 2°51.53 59.3 1 60 12.4
2010-06-22 06:47:01 51°13.572 2°51.532 59.6 1 64 12.4
2010-06-22 06:47:07 51°13.572 2°51.534 60.2 1 66 12.7
2010-06-22 06:47:12 51°13.573 2°51.536 60.3 1.1 66 12.4
2010-06-22 06:47:17 51°13.574 2°51.539 60.6 1 64 12.7
2010-06-22 06:47:22 51°13.574 2°51.541 61.1 1 68 12.4
2010-06-22 06:47:27 51°13.575 2°51.543 61.2 1 61 12.3
2010-06-22 06:47:32 51°13.575 2°51.545 61.5 1.1 71 12.7
2010-06-22 06:47:37 51°13.576 2°51.547 61.9 1.1 64 12.8
2010-06-22 06:47:41 51°13.576 2°51.549 62.1 1 68 12.3
2010-06-22 06:47:47 51°13.577 2°51.551 62.6 1 59 12.6
2010-06-22 06:47:52 51°13.577 2°51.554 63.2 1 64 12.3
2010-06-22 06:47:57 51°13.578 2°51.556 63.4 1.1 65 12.5
2010-06-22 06:48:01 51°13.578 2°51.558 63.4 1.1 73 12.8
2010-06-22 06:48:07 51°13.579 2°51.56 63.7 1.1 70 12.6
2010-06-22 06:48:12 51°13.58 2°51.563 64.4 1.3 66 12.5
2010-06-22 06:48:17 51°13.581 2°51.566 65.6 1.5 65 12.4
2010-06-22 06:48:21 51°13.581 2°51.569 67.2 1.8 66 12.7
2010-06-22 06:48:27 51°13.583 2°51.574 69.8 2 69 12.7
2010-06-22 06:48:32 51°13.584 2°51.578 73.3 2.1 66 12.7
2010-06-22 06:48:37 51°13.585 2°51.583 77.6 2.1 71 12.2
2010-06-22 06:48:42 51°13.585 2°51.587 81 2 71 12.4
2010-06-22 06:48:47 51°13.587 2°51.591 83.6 2 74 12.5
2010-06-22 06:48:52 51°13.587 2°51.595 86 1.9 72 12.5
2010-06-22 06:48:57 51°13.588 2°51.599 87.8 1.9 70 12.3
2010-06-22 06:49:01 51°13.589 2°51.602 88.9 1.8 72 12.5
2010-06-22 06:49:07 51°13.59 2°51.606 90.1 1.7 69 12.5
2010-06-22 06:49:12 51°13.591 2°51.61 91.3 1.6 70 12.5
2010-06-22 06:49:17 51°13.592 2°51.613 92.3 1.6 72 12.5
2010-06-22 06:49:22 51°13.592 2°51.617 93.7 1.7 71 12.5
2010-06-22 06:49:27 51°13.593 2°51.62 94.7 1.6 72 12.5
2010-06-22 06:49:32 51°13.594 2°51.623 95.9 1.6 72 12.8
2010-06-22 06:49:37 51°13.594 2°51.627 97.1 1.6 71 12.3
2010-06-22 06:49:42 51°13.595 2°51.63 98.1 1.5 74 12.5
2010-06-22 06:49:47 51°13.596 2°51.633 99.2 1.5 72 12.5
2010-06-22 06:49:52 51°13.597 2°51.637 100.2 1.6 69 12.4
2010-06-22 06:49:57 51°13.597 2°51.64 100.8 1.5 74 12.5
2010-06-22 06:50:01 51°13.598 2°51.643 101.7 1.5 72 12.5
2010-06-22 06:50:07 51°13.599 2°51.646 102.6 1.6 69 12.4
2010-06-22 06:50:12 51°13.599 2°51.65 103.3 1.5 77 12.8
2010-06-22 06:50:17 51°13.6 2°51.653 104.1 1.5 74 12.5
2010-06-22 06:50:21 51°13.6 2°51.656 105.3 1.5 72 12.3
2010-06-22 06:50:27 51°13.601 2°51.659 106.1 1.5 75 12.3
2010-06-22 06:50:32 51°13.601 2°51.663 106.8 1.5 73 12.5
2010-06-22 06:50:37 51°13.602 2°51.666 107.5 1.5 75 12.6
2010-06-22 06:50:41 51°13.602 2°51.668 108.2 1.5 72 12.8
2010-06-22 06:50:47 51°13.603 2°51.672 109 1.4 74 12.6
2010-06-22 06:50:52 51°13.604 2°51.675 109.6 1.4 75 12.5
2010-06-22 06:50:57 51°13.604 2°51.678 110.4 1.4 73 12.5
2010-06-22 06:51:01 51°13.605 2°51.68 110.8 1.4 77 12.6
2010-06-22 06:51:07 51°13.606 2°51.684 111.2 1.5 71 12.5
2010-06-22 06:51:12 51°13.606 2°51.687 111.7 1.4 74 12.3
2010-06-22 06:51:17 51°13.607 2°51.69 112 1.4 73 12.5
2010-06-22 06:51:22 51°13.607 2°51.693 112.3 1.4 76 13.2
2010-06-22 06:51:27 51°13.608 2°51.696 112.6 1.4 73 12.6
2010-06-22 06:51:32 51°13.608 2°51.699 112.7 1.4 74 12.5
2010-06-22 06:51:37 51°13.608 2°51.702 113.2 1.4 74 12.5
2010-06-22 06:51:42 51°13.609 2°51.705 113.1 1.3 77 12.5
2010-06-22 06:51:47 51°13.61 2°51.709 113.3 1.4 70 12.5
2010-06-22 06:51:52 51°13.61 2°51.712 113.3 1.4 72 12.4
2010-06-22 06:51:57 51°13.611 2°51.715 113.4 1.4 72 12.5
2010-06-22 06:52:02 51°13.611 2°51.718 113.4 1.4 74 12.5
2010-06-22 06:52:07 51°13.612 2°51.721 113.3 1.3 72 12.5
2010-06-22 06:52:12 51°13.613 2°51.723 113.3 1.4 72 12.4
2010-06-22 06:52:17 51°13.613 2°51.726 113.3 1.4 72 12.5
2010-06-22 06:52:21 51°13.614 2°51.729 113 1.4 73 12.5
2010-06-22 06:52:27 51°13.614 2°51.732 112.6 1.3 73 12.5
2010-06-22 06:52:32 51°13.615 2°51.735 112.3 1.4 71 12.6
2010-06-22 06:52:37 51°13.616 2°51.738 112.1 1.4 71 12.5
2010-06-22 06:52:41 51°13.616 2°51.741 111.6 1.4 70 12.5
2010-06-22 06:52:47 51°13.617 2°51.744 111.1 1.4 72 12.5
2010-06-22 06:52:52 51°13.618 2°51.747 110.4 1.4 71 12.3
2010-06-22 06:52:57 51°13.619 2°51.75 110.2 1.4 71 12.3
2010-06-22 06:53:01 51°13.619 2°51.752 109.7 1.4 74 12.5
2010-06-22 06:53:07 51°13.62 2°51.756 109.1 1.4 70 12.4
2010-06-22 06:53:12 51°13.621 2°51.759 108.8 1.4 69 12.4
2010-06-22 06:53:17 51°13.621 2°51.761 108.2 1.4 71 12.5
2010-06-22 06:53:22 51°13.622 2°51.764 107.6 1.4 71 12.5
2010-06-22 06:53:27 51°13.622 2°51.767 107.5 1.3 71 12.5
2010-06-22 06:53:32 51°13.623 2°51.77 106.9 1.4 71 12.4
2010-06-22 06:53:37 51°13.623 2°51.773 106.3 1.4 71 12.5
2010-06-22 06:53:41 51°13.624 2°51.775 105.9 1.5 68 12.4
2010-06-22 06:53:47 51°13.625 2°51.779 105.2 1.3 72 12.3
2010-06-22 06:53:52 51°13.625 2°51.781 104.4 1.3 72 12.7
2010-06-22 06:53:57 51°13.626 2°51.784 104.1 1.3 70 12.5
2010-06-22 06:54:02 51°13.627 2°51.787 103.6 1.4 68 12.5
2010-06-22 06:54:07 51°13.627 2°51.79 102.8 1.3 71 12.5
2010-06-22 06:54:12 51°13.628 2°51.793 102.3 1.4 68 12.4
2010-06-22 06:54:17 51°13.629 2°51.795 101.7 1.4 69 12.5
2010-06-22 06:54:21 51°13.629 2°51.798 101 1.4 67 12.4
2010-06-22 06:54:27 51°13.63 2°51.801 100.3 1.4 69 12.4
2010-06-22 06:54:32 51°13.631 2°51.804 99.6 1.4 72 12.7
2010-06-22 06:54:37 51°13.631 2°51.807 99.2 1.5 73 12.6
2010-06-22 06:54:42 51°13.632 2°51.811 99.5 1.7 78 12.5
2010-06-22 06:54:47 51°13.632 2°51.815 100.4 2 80 12.5
2010-06-22 06:54:52 51°13.632 2°51.82 102.5 2.1 85 12.5
2010-06-22 06:54:57 51°13.633 2°51.825 105.2 2.3 87 12.4
2010-06-22 06:55:01 51°13.633 2°51.829 108.6 2.4 91 12.6
2010-06-22 06:55:07 51°13.632 2°51.836 112.6 2.6 93 12.7
2010-06-22 06:55:12 51°13.632 2°51.842 117 2.8 98 12.4
2010-06-22 06:55:17 51°13.631 2°51.848 121.6 2.9 102 12.5
2010-06-22 06:55:22 51°13.63 2°51.855 126.4 3 106 12.5
2010-06-22 06:55:27 51°13.629 2°51.861 131.9 3 112 12.5
2010-06-22 06:55:32 51°13.626 2°51.867 137.3 3 118 12.5
2010-06-22 06:55:37 51°13.624 2°51.872 143.1 3 124 12.5
2010-06-22 06:55:41 51°13.622 2°51.876 149 2.9 130 12.5
2010-06-22 06:55:47 51°13.619 2°51.881 154.9 2.9 136 12.5
2010-06-22 06:55:52 51°13.616 2°51.885 160.9 2.8 143 12.5
2010-06-22 06:55:57 51°13.612 2°51.889 167 2.8 148 12.4
2010-06-22 06:56:02 51°13.609 2°51.891 173 2.8 157 12.5
2010-06-22 06:56:07 51°13.605 2°51.893 178.9 2.7 164 12.5
2010-06-22 06:56:12 51°13.601 2°51.893 185 2.7 175 12.4
2010-06-22 06:56:17 51°13.597 2°51.893 191.7 2.8 180 12.5
2010-06-22 06:56:21 51°13.594 2°51.893 198.3 2.8 189 12.5
2010-06-22 06:56:27 51°13.59 2°51.89 204.8 3 200 12.4
2010-06-22 06:56:32 51°13.585 2°51.887 210.1 3.4 210 12.4
2010-06-22 06:56:37 51°13.581 2°51.882 215.9 3.8 215 12.4
2010-06-22 06:56:41 51°13.578 2°51.877 221.8 4.2 224 12.4
2010-06-22 06:56:47 51°13.573 2°51.868 227.9 4.6 231 12.3
2010-06-22 06:56:52 51°13.569 2°51.858 234.1 5 238 12.3
2010-06-22 06:56:57 51°13.565 2°51.849 237.4 5.5 236 12.5
2010-06-22 06:57:01 51°13.562 2°51.84 238.4 6 237 12.4
2010-06-22 06:57:07 51°13.556 2°51.825 237.9 6.5 239 12.3
2010-06-22 06:57:12 51°13.55 2°51.812 237.7 7.1 235 12.4
2010-06-22 06:57:17 51°13.545 2°51.798 237.6 7.5 239 12.5
2010-06-22 06:57:22 51°13.539 2°51.783 237.2 7.9 237 12.2
2010-06-22 06:57:27 51°13.532 2°51.768 237.3 8.3 236 12.3
2010-06-22 06:57:32 51°13.526 2°51.753 236.7 8.7 238 12.3
2010-06-22 06:57:37 51°13.519 2°51.736 237 9 235 12.4
2010-06-22 06:57:41 51°13.513 2°51.722 236.6 9.2 239 12.3
2010-06-22 06:57:47 51°13.505 2°51.701 237.4 9.6 236 12.3
2010-06-22 06:57:52 51°13.498 2°51.682 237.6 9.9 241 12.3
2010-06-22 06:57:57 51°13.49 2°51.663 238.4 10.1 236 12.1
2010-06-22 06:58:02 51°13.483 2°51.644 238.2 10.3 240 12.5
2010-06-22 06:58:07 51°13.475 2°51.624 239.1 10.6 238 12.2
2010-06-22 06:58:12 51°13.467 2°51.603 238.1 11 241 12.4
2010-06-22 06:58:17 51°13.46 2°51.582 238.9 11.1 239 12.3
2010-06-22 06:58:21 51°13.452 2°51.565 238.3 11.4 239 12.3
2010-06-22 06:58:27 51°13.444 2°51.538 239.4 11.5 241 12.2
2010-06-22 06:58:32 51°13.436 2°51.516 240.7 11.6 242 12.5
2010-06-22 06:58:37 51°13.429 2°51.492 242.1 11.8 244 12.4
2010-06-22 06:58:41 51°13.423 2°51.474 243.2 11.9 245 12.3
2010-06-22 06:58:47 51°13.415 2°51.445 244.3 11.9 244 12.1
2010-06-22 06:58:52 51°13.408 2°51.421 244.1 12 246 12.4
2010-06-22 06:58:57 51°13.401 2°51.396 245.4 12 247 12.4
2010-06-22 06:59:01 51°13.395 2°51.377 245.4 12 245 12.5
2010-06-22 06:59:07 51°13.388 2°51.348 245.8 12 248 12.4
2010-06-22 06:59:12 51°13.381 2°51.324 245.8 12.1 246 12.7
2010-06-22 06:59:17 51°13.374 2°51.299 245.4 12.1 247 12.5
2010-06-22 06:59:22 51°13.368 2°51.275 245.9 12.1 246 12.2
2010-06-22 06:59:27 51°13.361 2°51.25 245.4 12.1 246 12.5
2010-06-22 06:59:32 51°13.354 2°51.226 246.2 12 247 12.5
2010-06-22 06:59:37 51°13.347 2°51.201 245.8 12.1 246 12.3
2010-06-22 06:59:41 51°13.342 2°51.182 245.4 12.1 247 12.9
2010-06-22 06:59:47 51°13.334 2°51.153 245.9 12.1 247 12.8
2010-06-22 06:59:52 51°13.327 2°51.128 245.9 12.1 247 12.7
2010-06-22 06:59:57 51°13.321 2°51.104 246.1 12 248 12.4
2010-06-22 07:00:02 51°13.314 2°51.08 245.4 12.1 245 12.5
2010-06-22 07:00:07 51°13.308 2°51.055 246.2 12 249 12.7
2010-06-22 07:00:12 51°13.3 2°51.031 245.5 12 244 12.8
2010-06-22 07:00:17 51°13.295 2°51.006 245.8 12.1 250 12.4
2010-06-22 07:00:21 51°13.287 2°50.988 244.3 12 240 12.9
2010-06-22 07:00:27 51°13.279 2°50.959 243.2 12.1 246 12.7
2010-06-22 07:00:32 51°13.271 2°50.936 243.1 11.9 240 12.6
2010-06-22 07:00:37 51°13.263 2°50.912 241.7 12.1 242 13.1
2010-06-22 07:00:42 51°13.256 2°50.889 242.3 12 243 12.5
2010-06-22 07:00:47 51°13.247 2°50.866 241.4 12 241 12.9
2010-06-22 07:00:52 51°13.24 2°50.842 241.1 12 242 12.7
2010-06-22 07:00:57 51°13.231 2°50.819 241 12 240 12.6
2010-06-22 07:01:01 51°13.225 2°50.801 240.4 12 241 12.7
2010-06-22 07:01:07 51°13.215 2°50.773 240.2 12 239 12.7
2010-06-22 07:01:12 51°13.206 2°50.75 239.5 12 242 12.7
2010-06-22 07:01:17 51°13.198 2°50.727 239.9 12 239 12.9
2010-06-22 07:01:21 51°13.192 2°50.709 239.8 12 241 12.7
2010-06-22 07:01:27 51°13.181 2°50.681 239.5 12 239 13
2010-06-22 07:01:32 51°13.173 2°50.658 239.8 12 242 12.9
2010-06-22 07:01:37 51°13.165 2°50.635 240 12 238 12.7
2010-06-22 07:01:41 51°13.158 2°50.616 239.6 12.1 242 12.8
2010-06-22 07:01:47 51°13.148 2°50.589 240.1 12.1 239 13
2010-06-22 07:01:52 51°13.14 2°50.565 240.3 12 241 12.7
2010-06-22 07:01:57 51°13.132 2°50.542 239.9 12.1 240 13.2
2010-06-22 07:02:01 51°13.125 2°50.523 240.2 12.1 241 13.2
2010-06-22 07:02:07 51°13.116 2°50.496 240.3 12 241 12.7
2010-06-22 07:02:12 51°13.107 2°50.473 240.3 12.1 240 13
2010-06-22 07:02:17 51°13.099 2°50.449 240.6 12 242 12.9
2010-06-22 07:02:21 51°13.092 2°50.432 239.6 12.1 238 12.9
2010-06-22 07:02:27 51°13.083 2°50.403 240.1 12.1 243 12.9
2010-06-22 07:02:32 51°13.073 2°50.38 240.3 12.1 237 12.9
2010-06-22 07:02:37 51°13.066 2°50.356 240.1 12.1 243 12.9
2010-06-22 07:02:42 51°13.057 2°50.334 240.6 12.1 238 13.2
2010-06-22 07:02:47 51°13.05 2°50.31 239.9 12 243 13.2
2010-06-22 07:02:52 51°13.041 2°50.288 240.5 12 238 13
2010-06-22 07:02:57 51°13.033 2°50.264 239.9 12.1 242 13
2010-06-22 07:03:02 51°13.025 2°50.241 241 12 240 13
2010-06-22 07:03:07 51°13.016 2°50.218 240.2 12 241 12.9
2010-06-22 07:03:12 51°13.008 2°50.195 240.6 12 240 12.9
2010-06-22 07:03:17 51°13 2°50.172 240.3 12 241 12.9
2010-06-22 07:03:22 51°12.992 2°50.149 239.8 12 239 13
2010-06-22 07:03:27 51°12.984 2°50.126 240 12 242 13
2010-06-22 07:03:32 51°12.975 2°50.103 240.1 12.1 239 13.1
2010-06-22 07:03:37 51°12.967 2°50.079 239.7 12 241 13
2010-06-22 07:03:41 51°12.96 2°50.061 239.9 12 238 13.2
2010-06-22 07:03:47 51°12.951 2°50.033 239.5 12 242 13
2010-06-22 07:03:52 51°12.941 2°50.011 239.6 12 239 13.1
2010-06-22 07:03:57 51°12.934 2°49.988 240.3 12 242 13.1
2010-06-22 07:04:01 51°12.926 2°49.97 239.6 12.1 238 13.5
2010-06-22 07:04:07 51°12.917 2°49.942 240.1 12 242 13.2
2010-06-22 07:04:12 51°12.909 2°49.919 240.3 12 239 13.4
2010-06-22 07:04:17 51°12.901 2°49.896 239.9 12 241 13.2
2010-06-22 07:04:21 51°12.894 2°49.877 240.3 12 240 13
2010-06-22 07:04:27 51°12.884 2°49.85 240.2 12 241 13.2
2010-06-22 07:04:32 51°12.876 2°49.827 240.1 12 240 13.2
2010-06-22 07:04:37 51°12.868 2°49.804 240.1 12 241 13.2
2010-06-22 07:04:42 51°12.86 2°49.781 240.3 12 240 13.2
2010-06-22 07:04:47 51°12.851 2°49.758 239.8 12 240 13.4
2010-06-22 07:04:52 51°12.843 2°49.735 240.3 12 240 13.1
2010-06-22 07:04:57 51°12.835 2°49.711 239.6 12.1 242 13.2
2010-06-22 07:05:01 51°12.829 2°49.693 240.6 12 240 13.4
2010-06-22 07:05:07 51°12.818 2°49.665 239.9 12.1 240 13.4
2010-06-22 07:05:12 51°12.811 2°49.641 240.3 12 242 13.3
2010-06-22 07:05:17 51°12.802 2°49.619 240.2 12 239 13.2
2010-06-22 07:05:22 51°12.794 2°49.595 239.7 12.1 242 13.4
2010-06-22 07:05:27 51°12.786 2°49.572 240.4 12 241 13.4
2010-06-22 07:05:32 51°12.777 2°49.549 240.4 12 240 13.2
2010-06-22 07:05:37 51°12.769 2°49.526 239.8 12.1 241 13.3
2010-06-22 07:05:41 51°12.763 2°49.507 240.7 11.9 241 13.3
2010-06-22 07:05:47 51°12.752 2°49.48 239.4 12.1 238 13.7
2010-06-22 07:05:52 51°12.746 2°49.456 240.3 12 241 13.4
2010-06-22 07:05:57 51°12.735 2°49.434 239.9 12.1 236 13.5
2010-06-22 07:06:01 51°12.73 2°49.414 239.7 12.2 246 13.3
2010-06-22 07:06:07 51°12.719 2°49.388 240.4 12.1 236 13.5
2010-06-22 07:06:12 51°12.712 2°49.364 239.6 12.1 244 13.4
2010-06-22 07:06:17 51°12.704 2°49.34 240.8 12.1 240 13.6
2010-06-22 07:06:21 51°12.697 2°49.322 240.2 12 241 13.5
2010-06-22 07:06:27 51°12.687 2°49.294 240.1 12.1 239 13.5
2010-06-22 07:06:32 51°12.679 2°49.271 239.8 12.1 244 13.6
2010-06-22 07:06:37 51°12.671 2°49.248 240.9 12 238 13.4
2010-06-22 07:06:42 51°12.662 2°49.225 239 12.1 241 13.6
2010-06-22 07:06:47 51°12.655 2°49.201 241.2 12 244 13.4
2010-06-22 07:06:52 51°12.645 2°49.179 239.7 12.1 236 13.6
2010-06-22 07:06:57 51°12.639 2°49.155 240.6 12.2 245 13.6
2010-06-22 07:07:01 51°12.631 2°49.137 240.8 12.1 238 13.5
2010-06-22 07:07:07 51°12.621 2°49.109 239.8 12.1 241 13.5
2010-06-22 07:07:12 51°12.614 2°49.085 240.7 12.1 242 13.6
2010-06-22 07:07:17 51°12.605 2°49.063 240.8 12 239 13.6
2010-06-22 07:07:22 51°12.597 2°49.039 239.7 12 243 13.6
2010-06-22 07:07:27 51°12.589 2°49.017 241.1 12 238 13.6
2010-06-22 07:07:32 51°12.58 2°48.993 239.4 12 242 13.6
2010-06-22 07:07:37 51°12.572 2°48.97 240.3 12 240 13.5
2010-06-22 07:07:41 51°12.565 2°48.952 239.6 12 244 13.8
2010-06-22 07:07:47 51°12.556 2°48.924 240.7 11.9 240 13.8
2010-06-22 07:07:52 51°12.547 2°48.901 239.7 12.1 243 13.8
2010-06-22 07:07:57 51°12.54 2°48.878 240.4 12.1 241 13.8
2010-06-22 07:08:01 51°12.532 2°48.86 240.5 12 240 13.7
2010-06-22 07:08:07 51°12.523 2°48.832 240.2 12.1 239 13.7
2010-06-22 07:08:12 51°12.515 2°48.808 240.5 12 242 13.9
2010-06-22 07:08:17 51°12.507 2°48.786 240.7 11.9 239 13.8
2010-06-22 07:08:21 51°12.499 2°48.768 239.9 12.1 239 14.2
2010-06-22 07:08:27 51°12.49 2°48.739 240.4 12 242 13.8
2010-06-22 07:08:32 51°12.481 2°48.717 239.7 11.9 239 13.8
2010-06-22 07:08:37 51°12.473 2°48.694 239.6 12 241 13.8
2010-06-22 07:08:42 51°12.465 2°48.671 239.8 12 241 13.8
2010-06-22 07:08:47 51°12.457 2°48.648 240.5 11.8 239 13.9
2010-06-22 07:08:52 51°12.448 2°48.626 239.6 12 239 14
2010-06-22 07:08:57 51°12.44 2°48.602 240 12 242 13.9
2010-06-22 07:09:01 51°12.433 2°48.584 240.4 11.9 239 13.8
2010-06-22 07:09:07 51°12.423 2°48.557 239.6 12 240 14
2010-06-22 07:09:12 51°12.415 2°48.533 240.2 12 242 13.9
2010-06-22 07:09:17 51°12.407 2°48.511 240 12 239 14.1
2010-06-22 07:09:22 51°12.399 2°48.487 240.5 12 243 14
2010-06-22 07:09:27 51°12.39 2°48.465 240.3 12.1 238 13.9
2010-06-22 07:09:32 51°12.383 2°48.441 239.8 12 242 14
2010-06-22 07:09:37 51°12.374 2°48.419 240.5 11.9 240 13.9
2010-06-22 07:09:41 51°12.368 2°48.4 239.9 12.1 241 14.2
2010-06-22 07:09:47 51°12.358 2°48.372 241 12 242 13.9
2010-06-22 07:09:52 51°12.349 2°48.349 240.3 12.1 240 14
2010-06-22 07:09:57 51°12.342 2°48.325 240.1 12.1 243 13.9
2010-06-22 07:10:02 51°12.333 2°48.303 241.1 12 239 14.4
2010-06-22 07:10:07 51°12.326 2°48.279 240.2 12.1 242 14
2010-06-22 07:10:12 51°12.317 2°48.256 240.3 12.1 242 14.1
2010-06-22 07:10:17 51°12.309 2°48.233 240.7 12 240 14.2
2010-06-22 07:10:21 51°12.302 2°48.214 239.8 12.1 242 14
2010-06-22 07:10:27 51°12.293 2°48.186 240.6 12 241 14
2010-06-22 07:10:32 51°12.284 2°48.163 240.1 12.1 241 14.2
2010-06-22 07:10:37 51°12.277 2°48.139 240 12.1 242 14.1
2010-06-22 07:10:42 51°12.268 2°48.117 240.2 12.1 239 14.1
2010-06-22 07:10:47 51°12.26 2°48.093 239.8 12.1 242 14.2
2010-06-22 07:10:52 51°12.252 2°48.069 240.6 12.1 242 14.3
2010-06-22 07:10:57 51°12.243 2°48.046 240.4 12.2 240 14.2
2010-06-22 07:11:01 51°12.238 2°48.027 240.8 12.1 242 14.1
2010-06-22 07:11:07 51°12.227 2°48 240.3 12.1 240 14.1
2010-06-22 07:11:12 51°12.219 2°47.976 240.1 12.1 240 14.2
2010-06-22 07:11:17 51°12.211 2°47.953 239.8 12.1 241 14.2
2010-06-22 07:11:22 51°12.202 2°47.93 239.8 12.2 240 14.5
2010-06-22 07:11:27 51°12.194 2°47.906 240.1 12.2 241 14.5
2010-06-22 07:11:32 51°12.186 2°47.883 240.7 12.1 241 14.2
2010-06-22 07:11:37 51°12.177 2°47.859 239.9 12.2 240 14.3
2010-06-22 07:11:41 51°12.171 2°47.84 240.6 12.2 242 14.2
2010-06-22 07:11:47 51°12.161 2°47.812 240.8 12.1 240 14.2
2010-06-22 07:11:52 51°12.153 2°47.789 240.1 12.2 240 14.3
2010-06-22 07:11:57 51°12.145 2°47.766 240.2 12.1 241 14.2
2010-06-22 07:12:01 51°12.138 2°47.747 240.2 12.1 239 14.4
2010-06-22 07:12:07 51°12.128 2°47.719 240.2 12.1 241 14.4
2010-06-22 07:12:12 51°12.119 2°47.696 240 12.2 239 14.3
2010-06-22 07:12:17 51°12.112 2°47.672 240.1 12.1 242 14.4
2010-06-22 07:12:21 51°12.105 2°47.654 240.4 12.1 239 14.3
2010-06-22 07:12:27 51°12.095 2°47.625 240.2 12.1 242 14.1
2010-06-22 07:12:32 51°12.086 2°47.603 240.3 12.1 239 14.4
2010-06-22 07:12:37 51°12.078 2°47.579 239.8 12.1 241 14.3
2010-06-22 07:12:41 51°12.071 2°47.561 239.8 12.1 240 14.4
2010-06-22 07:12:47 51°12.062 2°47.533 240.2 12.1 240 14.3
2010-06-22 07:12:52 51°12.054 2°47.51 240.4 12.1 242 14.4
2010-06-22 07:12:57 51°12.045 2°47.486 240.6 12.1 239 14.4
2010-06-22 07:13:01 51°12.039 2°47.467 240.5 12.1 244 14.3
2010-06-22 07:13:07 51°12.028 2°47.44 240.8 12.1 238 14.4
2010-06-22 07:13:12 51°12.021 2°47.416 240.2 12.2 244 14.3
2010-06-22 07:13:17 51°12.013 2°47.392 241.4 12 242 14.2
2010-06-22 07:13:21 51°12.006 2°47.374 241.2 12.1 241 14.5
2010-06-22 07:13:27 51°11.998 2°47.345 242.3 12.1 246 14.3
2010-06-22 07:13:32 51°11.989 2°47.322 242.5 12.2 239 14.4
2010-06-22 07:13:37 51°11.983 2°47.297 243.1 12 248 14.2
2010-06-22 07:13:42 51°11.974 2°47.274 243 12.1 239 14.2
2010-06-22 07:13:47 51°11.968 2°47.249 242.5 12.2 248 14.4
2010-06-22 07:13:52 51°11.96 2°47.226 244.5 12 241 14.5
2010-06-22 07:13:57 51°11.953 2°47.202 243 12.1 244 14.2
2010-06-22 07:14:01 51°11.947 2°47.183 242.9 12.1 244 14.3
2010-06-22 07:14:07 51°11.938 2°47.154 243.9 12 244 14.1
2010-06-22 07:14:12 51°11.931 2°47.13 242.6 12.1 244 14.3
2010-06-22 07:14:17 51°11.924 2°47.106 243.9 12.1 244 14.2
2010-06-22 07:14:22 51°11.916 2°47.083 243.5 12 244 14
2010-06-22 07:14:27 51°11.908 2°47.059 242.9 12.2 244 14.4
2010-06-22 07:14:32 51°11.902 2°47.034 244.1 12 245 14.3
2010-06-22 07:14:37 51°11.894 2°47.011 243.3 12 242 14.3
2010-06-22 07:14:41 51°11.889 2°46.991 244 12.2 248 14.2
2010-06-22 07:14:47 51°11.88 2°46.962 245.5 12.1 244 14.2
2010-06-22 07:14:52 51°11.874 2°46.938 245.4 12.1 246 14
2010-06-22 07:14:57 51°11.866 2°46.914 245.4 12.1 245 14.5
2010-06-22 07:15:02 51°11.86 2°46.889 246.5 12 248 14.2
2010-06-22 07:15:07 51°11.853 2°46.865 245.6 12.1 246 14.4
2010-06-22 07:15:12 51°11.847 2°46.84 246.7 12.1 251 14.4
2010-06-22 07:15:17 51°11.84 2°46.815 247.8 12.1 246 14.4
2010-06-22 07:15:21 51°11.836 2°46.795 248.3 12.1 253 14.4
2010-06-22 07:15:27 51°11.829 2°46.765 249.7 12 248 14.4
2010-06-22 07:15:32 51°11.824 2°46.74 249.4 12.1 253 14.5
2010-06-22 07:15:37 51°11.819 2°46.715 250.5 12.1 251 14.5
2010-06-22 07:15:42 51°11.813 2°46.689 250.3 12.2 251 14.3
2010-06-22 07:15:47 51°11.808 2°46.664 250.7 12.1 252 14.5
2010-06-22 07:15:52 51°11.803 2°46.639 251.2 12.1 251 14.6
2010-06-22 07:15:57 51°11.798 2°46.613 251.2 12.1 252 14.7
2010-06-22 07:16:01 51°11.794 2°46.593 251.4 12 253 14.7
2010-06-22 07:16:07 51°11.787 2°46.563 251.6 12.2 251 14.7
2010-06-22 07:16:12 51°11.782 2°46.537 251.3 12.1 254 14.6
2010-06-22 07:16:17 51°11.777 2°46.512 251.9 12 250 14.4
2010-06-22 07:16:22 51°11.772 2°46.486 250.4 12.2 253 14.5
2010-06-22 07:16:27 51°11.767 2°46.461 252 12 251 14.7
2010-06-22 07:16:32 51°11.761 2°46.436 251.2 12 250 14.6
2010-06-22 07:16:37 51°11.757 2°46.41 250.6 12.1 254 14.6
2010-06-22 07:16:41 51°11.752 2°46.39 251.8 12 252 14.6
2010-06-22 07:16:47 51°11.746 2°46.36 251.2 12 251 14.7
2010-06-22 07:16:52 51°11.741 2°46.334 250.8 12.1 255 14.6
2010-06-22 07:16:57 51°11.736 2°46.309 251.4 12 250 14.5
2010-06-22 07:17:01 51°11.731 2°46.289 250.5 12.1 252 14.6
2010-06-22 07:17:07 51°11.725 2°46.258 251.2 12 251 14.6
2010-06-22 07:17:12 51°11.72 2°46.233 250.6 12 251 14.6
2010-06-22 07:17:17 51°11.715 2°46.208 250.5 12.1 252 14.7
2010-06-22 07:17:21 51°11.71 2°46.188 250.6 12.1 250 14.6
2010-06-22 07:17:27 51°11.704 2°46.157 250.2 12.1 253 14.7
2010-06-22 07:17:32 51°11.699 2°46.132 251.2 12 249 14.6
2010-06-22 07:17:37 51°11.693 2°46.107 250.1 12.2 251 14.8
2010-06-22 07:17:42 51°11.688 2°46.081 251.4 12.1 253 14.7
2010-06-22 07:17:47 51°11.682 2°46.057 251.1 12 249 14.6
2010-06-22 07:17:52 51°11.677 2°46.031 250.3 12.2 252 14.8
2010-06-22 07:17:57 51°11.672 2°46.006 251.3 12.1 252 14.6
2010-06-22 07:18:01 51°11.667 2°45.986 250 12.1 248 14.8
2010-06-22 07:18:07 51°11.662 2°45.955 250.3 12.1 255 14.7
2010-06-22 07:18:12 51°11.655 2°45.93 250.6 12.1 248 14.6
2010-06-22 07:18:17 51°11.651 2°45.904 250 12.2 254 14.6
2010-06-22 07:18:22 51°11.645 2°45.879 251.1 12.1 252 14.7
2010-06-22 07:18:27 51°11.64 2°45.854 250.5 12 249 14.8
2010-06-22 07:18:32 51°11.635 2°45.828 250.2 12.2 253 14.6
2010-06-22 07:18:37 51°11.629 2°45.803 250.5 12.1 250 14.7
2010-06-22 07:18:42 51°11.624 2°45.778 250.5 12 252 14.7
2010-06-22 07:18:47 51°11.618 2°45.753 250.3 12.1 250 14.7
2010-06-22 07:18:52 51°11.613 2°45.727 250.4 12.2 252 14.6
2010-06-22 07:18:57 51°11.607 2°45.702 250.5 12.1 251 14.7
2010-06-22 07:19:01 51°11.603 2°45.682 250.1 12.1 251 14.7
2010-06-22 07:19:07 51°11.597 2°45.651 250.6 12.1 252 14.7
2010-06-22 07:19:12 51°11.591 2°45.626 250.4 12.1 252 14.6
2010-06-22 07:19:17 51°11.586 2°45.6 250.5 12.2 251 14.7
2010-06-22 07:19:21 51°11.581 2°45.58 250.8 12.1 252 14.6
2010-06-22 07:19:27 51°11.575 2°45.55 250.6 12.1 251 14.6
2010-06-22 07:19:32 51°11.569 2°45.525 250.5 12.2 250 14.8
2010-06-22 07:19:37 51°11.565 2°45.499 250.5 12.1 253 14.5
2010-06-22 07:19:41 51°11.559 2°45.479 250.3 12.2 249 14.8
2010-06-22 07:19:47 51°11.554 2°45.448 250.5 12.1 254 14.7
2010-06-22 07:19:52 51°11.547 2°45.424 249.8 12.1 250 14.7
2010-06-22 07:19:57 51°11.543 2°45.398 250.4 12.1 254 14.7
2010-06-22 07:20:02 51°11.537 2°45.373 250.9 12 249 14.8
2010-06-22 07:20:07 51°11.532 2°45.348 250.4 12.1 252 14.7
2010-06-22 07:20:12 51°11.526 2°45.323 250 12.1 250 14.9
2010-06-22 07:20:17 51°11.52 2°45.297 250 12.1 251 14.7
2010-06-22 07:20:21 51°11.516 2°45.277 250 12.1 250 14.8
2010-06-22 07:20:27 51°11.509 2°45.247 250 12.2 251 14.8
2010-06-22 07:20:32 51°11.504 2°45.221 250.6 12.1 253 14.7
2010-06-22 07:20:37 51°11.498 2°45.197 250.7 12 250 14.6
2010-06-22 07:20:42 51°11.493 2°45.171 249.9 12.1 252 14.7
2010-06-22 07:20:47 51°11.488 2°45.146 250.9 12 252 14.7
2010-06-22 07:20:52 51°11.482 2°45.121 250.6 12 250 14.6
2010-06-22 07:20:57 51°11.477 2°45.095 250.1 12.1 252 14.9
2010-06-22 07:21:02 51°11.472 2°45.07 250.8 12.1 253 14.6
2010-06-22 07:21:07 51°11.466 2°45.045 251.2 12.1 249 14.7
2010-06-22 07:21:12 51°11.462 2°45.019 250.4 12.1 254 14.6
2010-06-22 07:21:17 51°11.456 2°44.994 250.9 12.1 249 14.7
2010-06-22 07:21:21 51°11.452 2°44.974 250.1 12.1 254 14.7
2010-06-22 07:21:27 51°11.445 2°44.944 251 12 249 14.6
2010-06-22 07:21:32 51°11.439 2°44.919 249.9 12 251 14.9
2010-06-22 07:21:37 51°11.435 2°44.893 250.1 12.1 252 14.5
2010-06-22 07:21:41 51°11.43 2°44.874 250.3 12.1 251 14.5
2010-06-22 07:21:47 51°11.423 2°44.843 250.5 12 251 14.6
2010-06-22 07:21:52 51°11.418 2°44.818 250 12.1 250 14.7
2010-06-22 07:21:57 51°11.412 2°44.793 249.8 12.2 252 14.8
2010-06-22 07:22:01 51°11.409 2°44.772 250.8 12 251 14.7
2010-06-22 07:22:07 51°11.401 2°44.743 250.3 12 251 14.6
2010-06-22 07:22:12 51°11.396 2°44.717 250 12.1 251 14.6
2010-06-22 07:22:17 51°11.391 2°44.692 250.4 12 252 14.5
2010-06-22 07:22:21 51°11.386 2°44.672 250.4 11.9 250 14.8
2010-06-22 07:22:27 51°11.379 2°44.642 250 12.1 250 14.8
2010-06-22 07:22:32 51°11.374 2°44.617 250.1 12 253 14.9
2010-06-22 07:22:37 51°11.368 2°44.593 250.2 11.9 248 14.6
2010-06-22 07:22:42 51°11.363 2°44.567 249.6 12 253 14.7
2010-06-22 07:22:47 51°11.357 2°44.543 250.6 12 249 14.7
2010-06-22 07:22:52 51°11.352 2°44.518 250 11.9 252 14.6
2010-06-22 07:22:57 51°11.346 2°44.493 250 12 249 14.7
2010-06-22 07:23:01 51°11.342 2°44.473 250.3 12 252 14.5
2010-06-22 07:23:07 51°11.336 2°44.443 250.4 12 250 14.6
2010-06-22 07:23:12 51°11.331 2°44.418 250.8 11.9 253 14.5
2010-06-22 07:23:17 51°11.325 2°44.393 250.7 12 250 14.6
2010-06-22 07:23:21 51°11.321 2°44.373 250.5 11.9 252 14.5
2010-06-22 07:23:27 51°11.314 2°44.343 250.4 11.8 250 14.5
2010-06-22 07:23:32 51°11.309 2°44.319 250 11.9 250 14.6
2010-06-22 07:23:37 51°11.304 2°44.294 250 11.9 252 14.6
2010-06-22 07:23:41 51°11.299 2°44.274 250.3 11.8 250 14.5
2010-06-22 07:23:47 51°11.292 2°44.245 250 11.8 251 14.9
2010-06-22 07:23:52 51°11.287 2°44.22 250.3 11.8 249 14.5
2010-06-22 07:23:57 51°11.282 2°44.196 250.4 11.8 252 14.5
2010-06-22 07:24:01 51°11.277 2°44.176 250.3 11.8 249 14.8
2010-06-22 07:24:07 51°11.272 2°44.146 250.4 11.8 254 14.5
2010-06-22 07:24:12 51°11.265 2°44.122 250.4 11.9 249 14.7
2010-06-22 07:24:17 51°11.261 2°44.097 250.7 11.7 255 14.7
2010-06-22 07:24:21 51°11.256 2°44.078 250.9 11.8 247 14.7
2010-06-22 07:24:27 51°11.25 2°44.048 250 11.9 255 14.6
2010-06-22 07:24:32 51°11.244 2°44.024 251.1 11.7 249 14.5
2010-06-22 07:24:37 51°11.239 2°43.999 249.8 11.7 252 14.8
2010-06-22 07:24:42 51°11.234 2°43.974 251 11.8 250 14.7
2010-06-22 07:24:47 51°11.229 2°43.95 249.6 11.8 253 14.6
2010-06-22 07:24:52 51°11.224 2°43.926 251.2 11.7 249 14.6
2010-06-22 07:24:57 51°11.219 2°43.901 249.8 11.7 253 14.6
2010-06-22 07:25:01 51°11.214 2°43.881 250.4 11.7 248 14.7
2010-06-22 07:25:07 51°11.208 2°43.852 250 11.8 255 14.5
2010-06-22 07:25:12 51°11.202 2°43.828 250.5 11.6 248 14.7
2010-06-22 07:25:17 51°11.197 2°43.803 250.2 11.7 253 14.6
2010-06-22 07:25:22 51°11.192 2°43.779 250.3 11.8 250 14.9
2010-06-22 07:25:27 51°11.187 2°43.755 250.5 11.7 252 14.7
2010-06-22 07:25:32 51°11.181 2°43.731 250.3 11.7 249 14.6
2010-06-22 07:25:37 51°11.175 2°43.706 250.2 11.7 251 14.7
2010-06-22 07:25:41 51°11.171 2°43.687 250.1 11.7 249 14.9
2010-06-22 07:25:47 51°11.164 2°43.658 250.1 11.7 250 14.7
2010-06-22 07:25:52 51°11.158 2°43.634 249.8 11.7 250 14.6
2010-06-22 07:25:57 51°11.153 2°43.609 250.2 11.8 250 14.7
2010-06-22 07:26:01 51°11.149 2°43.59 250.6 11.7 250 14.7
2010-06-22 07:26:07 51°11.142 2°43.561 250.5 11.6 251 14.7
2010-06-22 07:26:12 51°11.136 2°43.536 250.3 11.8 249 14.7
2010-06-22 07:26:17 51°11.131 2°43.512 250.4 11.7 253 14.8
2010-06-22 07:26:21 51°11.128 2°43.492 252.7 11.6 252 14.7
2010-06-22 07:26:27 51°11.122 2°43.463 252.5 11.7 253 14.7
2010-06-22 07:26:32 51°11.118 2°43.437 253.7 11.7 255 14.7
2010-06-22 07:26:37 51°11.113 2°43.413 254.3 11.6 253 14.7
2010-06-22 07:26:42 51°11.11 2°43.388 254.5 11.7 256 14.7
2010-06-22 07:26:47 51°11.106 2°43.363 255 11.7 256 14.9
2010-06-22 07:26:52 51°11.102 2°43.338 255.8 11.7 252 14.8
2010-06-22 07:26:57 51°11.098 2°43.313 254.8 11.7 258 14.7
2010-06-22 07:27:01 51°11.095 2°43.293 255.9 11.7 255 14.8
2010-06-22 07:27:07 51°11.091 2°43.263 256.1 11.6 260 14.7
2010-06-22 07:27:12 51°11.088 2°43.238 257.6 11.6 258 14.9
2010-06-22 07:27:17 51°11.085 2°43.212 258.4 11.7 262 14.7
2010-06-22 07:27:22 51°11.083 2°43.187 259.4 11.6 261 14.5
2010-06-22 07:27:27 51°11.08 2°43.161 259.9 11.7 260 14.7
2010-06-22 07:27:32 51°11.078 2°43.136 260.1 11.8 264 14.7
2010-06-22 07:27:37 51°11.076 2°43.11 261.1 11.7 261 14.9
2010-06-22 07:27:41 51°11.074 2°43.089 260.7 11.7 261 14.7
2010-06-22 07:27:47 51°11.072 2°43.058 260.7 11.8 264 14.7
2010-06-22 07:27:52 51°11.069 2°43.033 261.3 11.7 260 14.5
2010-06-22 07:27:57 51°11.067 2°43.007 260.7 11.8 264 14.7
2010-06-22 07:28:01 51°11.065 2°42.987 261.1 11.8 262 14.6
2010-06-22 07:28:07 51°11.063 2°42.956 261.1 11.8 263 14.6
2010-06-22 07:28:12 51°11.06 2°42.93 261.4 11.7 261 14.9
2010-06-22 07:28:17 51°11.058 2°42.904 260.9 11.8 263 14.8
2010-06-22 07:28:21 51°11.057 2°42.884 260.7 11.8 262 14.7
2010-06-22 07:28:27 51°11.056 2°42.853 263.3 11.8 269 14.8
2010-06-22 07:28:32 51°11.055 2°42.827 265.3 11.8 267 14.9
2010-06-22 07:28:37 51°11.056 2°42.801 266.8 11.8 272 14.8
2010-06-22 07:28:42 51°11.056 2°42.775 269.3 11.8 273 14.7
2010-06-22 07:28:47 51°11.058 2°42.749 270.8 11.8 275 14.8
2010-06-22 07:28:52 51°11.059 2°42.723 272.1 11.8 275 15
2010-06-22 07:28:57 51°11.061 2°42.697 273.3 11.9 277 14.9
2010-06-22 07:29:01 51°11.063 2°42.676 274.6 11.7 278 14.9
2010-06-22 07:29:07 51°11.066 2°42.647 275.4 11.1 278 15
2010-06-22 07:29:12 51°11.069 2°42.624 276.1 10.6 281 14.7
2010-06-22 07:29:17 51°11.071 2°42.602 276.6 10.1 280 14.8
2010-06-22 07:29:22 51°11.073 2°42.581 276.1 9.7 280 14.9
2010-06-22 07:29:27 51°11.075 2°42.56 275.3 9.3 276 14.9
2010-06-22 07:29:32 51°11.076 2°42.54 274.2 9.1 278 15
2010-06-22 07:29:37 51°11.077 2°42.521 272.5 8.9 274 15.2
2010-06-22 07:29:41 51°11.078 2°42.506 271.2 8.7 274 15.1
2010-06-22 07:29:47 51°11.079 2°42.483 270.1 8.5 273 15
2010-06-22 07:29:52 51°11.079 2°42.464 269.1 8.4 271 15.1
2010-06-22 07:29:57 51°11.079 2°42.446 268.2 8.3 271 14.9
2010-06-22 07:30:02 51°11.079 2°42.428 267.1 8.2 271 15
2010-06-22 07:30:07 51°11.079 2°42.41 267.1 8.1 268 15
2010-06-22 07:30:12 51°11.079 2°42.392 266.5 8.1 271 14.9
2010-06-22 07:30:17 51°11.078 2°42.375 266.2 8 267 15
2010-06-22 07:30:21 51°11.078 2°42.361 265.7 7.9 269 14.9
2010-06-22 07:30:27 51°11.078 2°42.34 265.4 7.6 268 14.9
2010-06-22 07:30:32 51°11.078 2°42.324 265.7 7.2 270 14.7
2010-06-22 07:30:37 51°11.078 2°42.309 265.5 6.9 269 14.9
2010-06-22 07:30:41 51°11.078 2°42.297 266 6.6 271 15
2010-06-22 07:30:47 51°11.078 2°42.28 267.1 6.3 271 15.1
2010-06-22 07:30:52 51°11.079 2°42.267 268.1 6.1 274 14.9
2010-06-22 07:30:57 51°11.079 2°42.254 268.9 5.8 275 15.1
2010-06-22 07:31:01 51°11.08 2°42.244 269.9 5.6 275 15.1
2010-06-22 07:31:07 51°11.081 2°42.23 271.2 5.4 279 15
2010-06-22 07:31:12 51°11.083 2°42.219 273.3 5.2 282 15
2010-06-22 07:31:17 51°11.085 2°42.208 275.6 5 285 14.9
2010-06-22 07:31:22 51°11.087 2°42.198 277.7 4.9 288 14.8
2010-06-22 07:31:27 51°11.089 2°42.188 279.5 4.7 289 14.8
2010-06-22 07:31:32 51°11.091 2°42.179 280.8 4.6 291 14.9
2010-06-22 07:31:37 51°11.094 2°42.17 282.1 4.5 293 14.8
2010-06-22 07:31:41 51°11.096 2°42.163 283.4 4.4 294 14.8
2010-06-22 07:31:47 51°11.099 2°42.152 283.8 4.3 295 14.8
2010-06-22 07:31:52 51°11.101 2°42.144 283.9 4.2 296 14.6
2010-06-22 07:31:57 51°11.103 2°42.136 283.7 4.1 296 14.7
2010-06-22 07:32:02 51°11.106 2°42.128 283.5 3.9 295 14.9
2010-06-22 07:32:07 51°11.108 2°42.12 282.9 3.8 295 14.9
2010-06-22 07:32:12 51°11.11 2°42.113 282.2 3.6 296 14.5
2010-06-22 07:32:17 51°11.112 2°42.106 281.3 3.4 296 14.5
2010-06-22 07:32:21 51°11.114 2°42.101 280.3 3.2 293 14.7
2010-06-22 07:32:27 51°11.116 2°42.094 279.4 2.9 294 14.7
2010-06-22 07:32:32 51°11.118 2°42.089 278 2.6 294 14.5
2010-06-22 07:32:37 51°11.119 2°42.084 276.8 2.4 298 14.5
2010-06-22 07:32:41 51°11.12 2°42.081 276.1 2.2 299 14.7
2010-06-22 07:32:47 51°11.122 2°42.076 276.8 1.9 304 14.7
2010-06-22 07:32:52 51°11.124 2°42.074 278.9 1.8 311 14.7
2010-06-22 07:32:57 51°11.125 2°42.071 282.9 1.6 323 14.5
2010-06-22 07:33:01 51°11.127 2°42.07 286.8 1.5 330 14.6
2010-06-22 07:33:07 51°11.129 2°42.069 289.7 1.4 338 14.7
2010-06-22 07:33:12 51°11.131 2°42.068 294.7 1.3 351 14.7
2010-06-22 07:33:17 51°11.132 2°42.068 298.4 1.2 -999 14.7
2010-06-22 07:33:22 51°11.134 2°42.069 301.8 1.2 13 14.5
2010-06-22 07:33:27 51°11.135 2°42.069 304.6 1.1 23 14.5
2010-06-22 07:33:32 51°11.137 2°42.071 308.6 1.2 27 14.6
2010-06-22 07:33:37 51°11.138 2°42.072 311.7 1.2 31 14.6
2010-06-22 07:33:41 51°11.139 2°42.073 314.4 1.2 34 14.5
2010-06-22 07:33:47 51°11.141 2°42.075 316.4 1.3 37 14.5
2010-06-22 07:33:52 51°11.143 2°42.077 319.4 1.2 39 14.6
2010-06-22 07:33:57 51°11.144 2°42.079 322.1 1.3 41 14.5
2010-06-22 07:34:02 51°11.145 2°42.081 324.6 1.3 42 14.5
2010-06-22 07:34:07 51°11.147 2°42.083 327.1 1.3 44 14.7
2010-06-22 07:34:12 51°11.148 2°42.085 328.9 1.3 46 14.5
2010-06-22 07:34:17 51°11.149 2°42.087 331.4 1.3 43 14.5
2010-06-22 07:34:21 51°11.15 2°42.089 333.2 1.4 45 14.7
2010-06-22 07:34:27 51°11.152 2°42.091 335.2 1.4 46 14.6
2010-06-22 07:34:32 51°11.153 2°42.094 336.9 1.4 47 14.5
2010-06-22 07:34:37 51°11.155 2°42.096 338.3 1.4 46 14.5
2010-06-22 07:34:42 51°11.156 2°42.098 340.4 1.4 47 14.6
2010-06-22 07:34:47 51°11.157 2°42.101 342 1.4 48 14.7
2010-06-22 07:34:52 51°11.158 2°42.103 343.5 1.4 50 14.6
2010-06-22 07:34:57 51°11.16 2°42.105 345 1.4 50 14.7
2010-06-22 07:35:01 51°11.161 2°42.107 346.1 1.4 48 14.5
2010-06-22 07:35:07 51°11.162 2°42.11 347.7 1.5 50 14.4
2010-06-22 07:35:12 51°11.164 2°42.113 349 1.5 50 14.6
2010-06-22 07:35:17 51°11.165 2°42.115 350 1.4 50 14.5
2010-06-22 07:35:21 51°11.166 2°42.117 351.2 1.4 50 14.5
2010-06-22 07:35:27 51°11.167 2°42.12 352.1 1.5 53 14.5
2010-06-22 07:35:32 51°11.169 2°42.123 353.3 1.4 53 14.6
2010-06-22 07:35:37 51°11.17 2°42.126 354.3 1.5 52 14.5
2010-06-22 07:35:41 51°11.171 2°42.128 355.2 1.5 51 14.5
2010-06-22 07:35:47 51°11.173 2°42.131 356 1.5 53 14.5
2010-06-22 07:35:52 51°11.174 2°42.134 357 1.5 51 14.6
2010-06-22 07:35:57 51°11.175 2°42.136 357.8 1.5 54 14.5
2010-06-22 07:36:02 51°11.176 2°42.139 358.6 1.5 53 14.6
2010-06-22 07:36:07 51°11.178 2°42.141 359.4 1.5 54 14.6
2010-06-22 07:36:12 51°11.179 2°42.144 0.1 1.5 53 14.5
2010-06-22 07:36:17 51°11.18 2°42.147 1 1.5 53 14.5
2010-06-22 07:36:21 51°11.181 2°42.149 1.5 1.5 54 14.5
2010-06-22 07:36:27 51°11.182 2°42.152 1.9 1.5 56 14.5